Time;durP1;ratioP1;P1;durP2;ratioP2;P2;SDS_P1;SDS_P2;PMS_P1;PMS_P2;Temp;Humidity;BMP_temperature;BMP_pressure;BME280_temperature;BME280_humidity;BME280_pressure;Samples;Min_cycle;Max_cycle;Signal;HPM_P1;HPM_P2
2022/05/19 00:00:36;;;;;;;33.63;19.73;;;;;;;25.88;48.55;101875.06;4993164;28;20446;-68
2022/05/19 00:03:02;;;;;;;27.60;19.10;;;;;;;25.91;48.30;101874.44;4992773;28;20398;-67
2022/05/19 00:05:28;;;;;;;32.15;19.75;;;;;;;25.74;48.90;101875.03;4992682;28;20037;-68
2022/05/19 00:07:53;;;;;;;30.42;20.50;;;;;;;25.73;48.76;101872.56;4993006;28;20042;-70
2022/05/19 00:10:19;;;;;;;29.05;19.67;;;;;;;25.93;48.43;101867.50;4991823;28;20069;-67
2022/05/19 00:12:44;;;;;;;29.05;20.20;;;;;;;25.84;48.54;101868.53;4991368;28;20031;-68
2022/05/19 00:15:12;;;;;;;33.33;21.35;;;;;;;25.85;48.43;101865.44;4992147;28;20507;-67
2022/05/19 00:17:39;;;;;;;34.92;21.33;;;;;;;25.95;48.05;101862.53;4992547;28;20113;-67
2022/05/19 00:20:05;;;;;;;35.42;20.15;;;;;;;25.97;47.96;101857.53;4992148;28;20479;-68
2022/05/19 00:22:31;;;;;;;32.60;20.90;;;;;;;25.94;47.87;101862.81;4991928;28;20029;-68
2022/05/19 00:24:56;;;;;;;30.00;20.83;;;;;;;25.79;48.41;101865.84;4992322;28;20109;-68
2022/05/19 00:27:22;;;;;;;33.17;20.50;;;;;;;25.76;48.44;101863.69;4992366;28;20062;-67
2022/05/19 00:29:47;;;;;;;31.38;19.70;;;;;;;26.00;48.04;101867.94;4992320;28;20041;-68
2022/05/19 00:32:12;;;;;;;28.85;22.08;;;;;;;26.07;47.91;101875.84;4992160;28;20560;-68
2022/05/19 00:34:38;;;;;;;38.10;22.80;;;;;;;25.91;48.24;101872.50;4992529;28;20046;-68
2022/05/19 00:37:03;;;;;;;28.77;20.30;;;;;;;25.96;48.60;101866.91;4991902;28;20051;-67
2022/05/19 00:39:33;;;;;;;33.03;21.02;;;;;;;26.06;48.04;101863.19;4992194;28;20509;-68
2022/05/19 00:44:43;;;;;;;27.50;19.45;;;;;;;25.93;48.21;101864.75;4992092;28;20041;-69
2022/05/19 00:47:15;;;;;;;30.15;20.52;;;;;;;26.07;47.87;101851.88;4992177;28;20438;-68
2022/05/19 00:49:44;;;;;;;30.20;20.70;;;;;;;26.04;47.95;101852.41;4992420;28;20494;-68
2022/05/19 00:52:19;;;;;;;28.08;20.38;;;;;;;25.87;47.98;101852.19;4991882;28;20502;-67
2022/05/19 00:54:48;;;;;;;35.58;21.75;;;;;;;25.92;47.63;101854.06;4991627;28;20037;-68
2022/05/19 00:57:18;;;;;;;29.10;19.90;;;;;;;25.98;47.90;101856.38;4991706;28;20040;-67
2022/05/19 00:59:48;;;;;;;30.90;21.15;;;;;;;25.87;47.88;101852.19;4991766;28;20066;-68
2022/05/19 01:02:18;;;;;;;26.83;20.40;;;;;;;25.99;48.02;101848.94;4991579;28;20061;-67
2022/05/19 01:04:51;;;;;;;34.37;23.07;;;;;;;25.87;48.15;101843.94;4992341;28;20490;-68
2022/05/19 01:07:26;;;;;;;36.25;21.63;;;;;;;25.73;48.98;101847.78;4991859;28;20054;-68
2022/05/19 01:09:54;;;;;;;32.88;21.73;;;;;;;25.71;48.89;101850.03;4991796;28;20529;-68
2022/05/19 01:12:21;;;;;;;32.88;21.38;;;;;;;25.81;48.66;101838.81;4991751;28;20421;-68
2022/05/19 01:14:47;;;;;;;32.35;23.17;;;;;;;25.66;49.29;101833.56;4991098;28;20031;-67
2022/05/19 01:17:13;;;;;;;33.10;21.83;;;;;;;25.75;48.53;101837.28;4991244;28;20049;-68
2022/05/19 01:19:44;;;;;;;33.10;23.05;;;;;;;25.76;48.18;101825.16;4991886;28;20451;-69
2022/05/19 01:22:34;;;;;;;32.50;22.98;;;;;;;25.71;48.85;101823.28;4991360;28;20048;-67
2022/05/19 01:25:26;;;;;;;30.48;22.77;;;;;;;25.76;48.96;101816.88;4991497;28;20042;-68
2022/05/19 01:27:51;;;;;;;36.03;23.58;;;;;;;25.67;48.68;101805.72;4991638;28;20621;-69
2022/05/19 01:30:17;;;;;;;32.83;22.48;;;;;;;25.59;49.17;101802.88;4991279;28;20038;-68
2022/05/19 01:32:42;;;;;;;34.35;24.30;;;;;;;25.46;49.76;101809.13;4990993;28;20054;-68
2022/05/19 01:35:08;;;;;;;39.70;26.13;;;;;;;25.65;49.08;101810.72;4991420;28;20031;-68
2022/05/19 01:37:34;;;;;;;32.58;25.15;;;;;;;25.59;49.50;101802.88;4991450;28;20046;-67
2022/05/19 01:40:11;;;;;;;34.25;26.75;;;;;;;25.27;50.23;101793.47;4991121;28;20070;-67
2022/05/19 01:42:57;;;;;;;42.05;25.25;;;;;;;25.50;49.19;101791.72;4991240;28;20053;-68
2022/05/19 01:45:45;;;;;;;34.25;24.35;;;;;;;25.45;49.13;101786.31;4991043;28;20097;-67
2022/05/19 01:48:23;;;;;;;41.40;26.65;;;;;;;25.45;49.45;101785.50;4991063;28;20038;-67
2022/05/19 01:50:52;;;;;;;40.55;25.63;;;;;;;25.45;49.14;101785.50;4991134;28;20065;-68
2022/05/19 01:53:27;;;;;;;37.33;25.90;;;;;;;25.24;49.68;101784.97;4991322;28;20379;-68
2022/05/19 01:56:09;;;;;;;43.83;28.58;;;;;;;25.15;50.59;101775.78;4990914;28;20030;-68
2022/05/19 01:59:13;;;;;;;36.80;27.63;;;;;;;24.87;51.13;101777.59;4991402;28;20045;-68
2022/05/19 02:01:44;;;;;;;41.70;29.42;;;;;;;25.13;50.43;101762.34;4949642;29;20122;-67
2022/05/19 02:04:19;;;;;;;42.03;29.83;;;;;;;25.11;50.42;101761.00;4949580;29;20051;-68
2022/05/19 02:06:46;;;;;;;41.80;30.50;;;;;;;25.02;50.86;101755.34;4949533;29;20032;-67
2022/05/19 02:09:24;;;;;;;50.35;30.42;;;;;;;25.07;50.69;101765.47;4949615;29;20050;-69
2022/05/19 02:11:54;;;;;;;45.30;30.25;;;;;;;25.01;50.91;101759.22;4949254;29;20039;-69
2022/05/19 02:14:24;;;;;;;43.85;29.85;;;;;;;24.84;51.31;101753.44;4949658;28;20461;-67
2022/05/19 02:16:50;;;;;;;39.88;31.65;;;;;;;24.84;51.44;101755.38;4949480;29;20043;-68
2022/05/19 02:19:20;;;;;;;48.78;32.67;;;;;;;25.07;50.71;101747.03;4949754;29;20057;-67
2022/05/19 02:21:45;;;;;;;45.58;31.83;;;;;;;24.81;51.00;101743.03;4949632;29;20094;-68
2022/05/19 02:24:15;;;;;;;51.38;32.83;;;;;;;24.70;51.72;101733.28;4948717;29;20042;-68
2022/05/19 02:26:40;;;;;;;53.80;34.35;;;;;;;24.70;51.41;101736.03;4949375;29;20115;-67
2022/05/19 02:29:16;;;;;;;55.22;33.40;;;;;;;24.68;51.45;101727.25;4949326;29;20106;-68
2022/05/19 02:31:43;;;;;;;51.95;34.42;;;;;;;24.42;51.94;101712.25;4949671;29;20051;-67
2022/05/19 02:34:09;;;;;;;52.65;34.45;;;;;;;24.04;53.39;101713.28;4949313;29;20573;-68
2022/05/19 02:36:34;;;;;;;49.95;34.60;;;;;;;24.36;52.62;101714.25;4958273;28;20073;-69
2022/05/19 02:39:00;;;;;;;55.30;35.35;;;;;;;24.45;52.58;101713.59;4990650;28;20046;-67
2022/05/19 02:41:25;;;;;;;48.17;34.78;;;;;;;24.29;52.87;101710.25;5005715;28;20038;-68
2022/05/19 02:43:50;;;;;;;52.67;35.35;;;;;;;24.33;52.68;101706.59;4990942;28;20022;-69
2022/05/19 02:46:16;;;;;;;55.10;37.33;;;;;;;24.58;51.75;101713.66;4994437;28;20034;-69
2022/05/19 02:48:41;;;;;;;56.17;37.63;;;;;;;24.51;51.83;101718.69;4994265;28;20034;-69
2022/05/19 02:51:06;;;;;;;50.17;34.47;;;;;;;24.97;50.68;101721.59;4994201;28;20284;-68
2022/05/19 02:53:32;;;;;;;55.33;37.50;;;;;;;25.25;49.89;101715.91;4994031;28;20038;-69
2022/05/19 02:55:57;;;;;;;54.65;35.90;;;;;;;24.91;50.37;101714.56;4994332;28;20057;-69
2022/05/19 02:58:23;;;;;;;47.72;35.38;;;;;;;25.11;50.04;101722.47;4994499;28;20034;-68
2022/05/19 03:00:50;;;;;;;50.15;37.65;;;;;;;25.26;49.83;101714.78;4993759;28;20500;-69
2022/05/19 03:03:16;;;;;;;52.10;36.63;;;;;;;25.08;50.39;101723.88;4993824;28;20034;-68
2022/05/19 03:05:42;;;;;;;49.55;35.35;;;;;;;25.14;49.90;101725.44;4994080;28;20035;-69
2022/05/19 03:08:09;;;;;;;46.78;35.22;;;;;;;25.27;49.73;101724.69;4993387;28;20028;-68
2022/05/19 03:10:36;;;;;;;55.55;37.17;;;;;;;25.11;50.12;101730.72;4994131;28;20042;-68
2022/05/19 03:13:03;;;;;;;48.35;36.40;;;;;;;25.18;49.85;101731.16;4993780;28;20031;-68
2022/05/19 03:15:28;;;;;;;53.40;36.90;;;;;;;25.10;50.30;101729.91;4993340;28;20073;-69
2022/05/19 03:17:54;;;;;;;58.90;36.63;;;;;;;24.94;50.89;101736.75;4993430;28;20106;-68
2022/05/19 03:20:20;;;;;;;50.53;35.50;;;;;;;25.03;50.42;101729.50;4993566;28;20045;-68
2022/05/19 03:22:46;;;;;;;57.90;36.30;;;;;;;25.36;49.79;101740.47;4994081;28;20099;-68
2022/05/19 03:25:11;;;;;;;52.13;36.75;;;;;;;25.33;49.54;101741.09;4993366;28;20030;-69
2022/05/19 03:27:38;;;;;;;50.17;37.15;;;;;;;25.13;50.04;101736.75;4993362;28;20049;-68
2022/05/19 03:30:08;;;;;;;46.03;36.30;;;;;;;25.14;50.33;101735.63;4992002;28;20069;-68
2022/05/19 03:32:33;;;;;;;55.53;39.40;;;;;;;25.24;50.02;101738.19;4993020;28;20034;-69
2022/05/19 03:34:59;;;;;;;55.22;36.75;;;;;;;25.25;49.76;101737.94;4993334;28;20420;-68
2022/05/19 03:37:24;;;;;;;52.58;35.63;;;;;;;25.17;50.17;101738.59;4993117;28;20047;-69
2022/05/19 03:39:51;;;;;;;51.28;38.83;;;;;;;25.15;50.25;101738.09;4993006;28;20035;-68
2022/05/19 03:42:16;;;;;;;60.30;37.50;;;;;;;25.30;49.86;101738.97;4992947;28;20045;-68
2022/05/19 03:44:41;;;;;;;58.50;37.60;;;;;;;25.35;49.68;101738.84;4992864;28;20038;-69
2022/05/19 03:47:07;;;;;;;51.55;35.55;;;;;;;25.19;50.23;101736.38;4992575;28;20041;-69
2022/05/19 03:49:33;;;;;;;50.22;35.80;;;;;;;25.27;50.07;101746.69;4993426;28;20057;-68
2022/05/19 03:51:58;;;;;;;48.83;36.35;;;;;;;25.39;49.91;101746.22;4992977;28;20049;-68
2022/05/19 03:54:24;;;;;;;47.22;36.63;;;;;;;25.35;49.71;101752.63;4993006;28;20309;-68
2022/05/19 03:56:49;;;;;;;50.42;37.80;;;;;;;25.39;50.01;101757.22;4992498;28;20038;-69
2022/05/19 03:59:15;;;;;;;45.20;35.25;;;;;;;25.38;49.97;101777.59;4992995;28;20069;-69
2022/05/19 04:01:40;;;;;;;51.70;35.15;;;;;;;24.99;51.22;101791.72;4990582;28;20545;-68
2022/05/19 04:04:07;;;;;;;54.58;36.30;;;;;;;24.28;53.32;101838.53;4992187;28;20030;-69
2022/05/19 04:06:34;;;;;;;52.90;36.60;;;;;;;23.74;55.73;101848.13;4992705;28;20037;-68
2022/05/19 04:08:59;;;;;;;55.35;39.47;;;;;;;23.89;55.26;101846.06;4992556;28;20110;-69
2022/05/19 04:11:26;;;;;;;53.55;37.63;;;;;;;24.18;54.39;101835.06;4992437;28;20113;-69
2022/05/19 04:13:52;;;;;;;51.67;36.17;;;;;;;24.94;52.20;101834.97;4992413;28;20034;-67
2022/05/19 04:16:17;;;;;;;49.92;36.83;;;;;;;25.02;51.81;101826.84;4992457;28;20124;-68
2022/05/19 04:18:43;;;;;;;44.85;33.15;;;;;;;24.89;51.66;101813.88;4992246;28;20395;-69
2022/05/19 04:21:08;;;;;;;47.67;30.38;;;;;;;25.20;50.86;101826.03;4991792;28;20391;-69
2022/05/19 04:23:33;;;;;;;43.42;29.08;;;;;;;25.17;51.16;101817.56;4992060;28;20038;-69
2022/05/19 04:25:59;;;;;;;41.22;28.42;;;;;;;25.57;50.10;101824.38;4991101;28;20027;-68
2022/05/19 04:28:25;;;;;;;39.22;27.48;;;;;;;25.21;51.04;101833.19;4992871;28;20026;-68
2022/05/19 04:30:50;;;;;;;34.83;26.55;;;;;;;25.15;50.70;101820.63;4991864;28;20387;-69
2022/05/19 04:33:16;;;;;;;33.97;27.55;;;;;;;25.51;50.36;101811.81;4991981;28;20046;-69
2022/05/19 04:35:41;;;;;;;32.90;21.65;;;;;;;24.76;51.67;101822.84;4992122;28;20089;-69
2022/05/19 04:38:09;;;;;;;28.00;19.63;;;;;;;24.93;50.86;101830.59;4991548;28;20050;-67
2022/05/19 04:40:37;;;;;;;31.60;21.33;;;;;;;25.36;50.05;101823.03;4991387;28;20069;-69
2022/05/19 04:43:04;;;;;;;22.13;16.88;;;;;;;25.15;49.87;101830.81;4991962;28;20034;-68
2022/05/19 04:45:29;;;;;;;22.65;16.38;;;;;;;26.13;47.47;101829.72;4991910;28;20046;-68
2022/05/19 04:47:54;;;;;;;21.73;14.98;;;;;;;24.95;50.15;101831.09;4991729;28;20080;-68
2022/05/19 04:50:20;;;;;;;18.02;13.38;;;;;;;25.46;48.88;101823.72;4991837;28;20030;-69
2022/05/19 04:52:45;;;;;;;21.92;13.43;;;;;;;25.68;48.04;101829.41;4992290;28;20058;-69
2022/05/19 04:55:11;;;;;;;16.50;10.95;;;;;;;25.76;47.43;101827.91;4991856;28;20047;-69
2022/05/19 04:57:37;;;;;;;17.75;9.63;;;;;;;25.42;48.12;101832.88;4990632;28;20073;-69
2022/05/19 05:00:07;;;;;;;13.57;7.53;;;;;;;26.33;45.56;101826.56;4991572;28;20088;-71
2022/05/19 05:02:33;;;;;;;12.30;6.82;;;;;;;25.64;46.59;101828.38;4991586;28;20049;-68
2022/05/19 05:04:59;;;;;;;9.38;5.85;;;;;;;25.68;45.87;101829.41;4991615;28;20046;-69
2022/05/19 05:07:24;;;;;;;9.50;4.97;;;;;;;25.57;46.33;101829.88;4991778;28;20110;-70
2022/05/19 05:09:49;;;;;;;7.65;3.83;;;;;;;25.49;46.37;101823.16;4991582;28;20042;-71
2022/05/19 05:12:15;;;;;;;5.13;3.78;;;;;;;25.92;45.17;101838.34;4992037;28;20030;-70
2022/05/19 05:14:40;;;;;;;6.85;3.45;;;;;;;25.83;45.77;101831.88;4991524;28;20045;-69
2022/05/19 05:17:06;;;;;;;5.68;2.67;;;;;;;25.46;46.15;101823.72;4990922;28;20049;-68
2022/05/19 05:19:31;;;;;;;4.60;2.65;;;;;;;25.92;45.03;101838.34;4990907;28;20018;-69
2022/05/19 05:21:58;;;;;;;2.65;2.38;;;;;;;25.86;45.69;101841.50;4991493;28;20086;-70
2022/05/19 05:24:24;;;;;;;3.35;2.45;;;;;;;25.68;45.78;101848.69;4991037;28;20498;-69
2022/05/19 05:26:49;;;;;;;5.60;2.40;;;;;;;25.95;45.00;101864.44;4982410;28;20033;-70
2022/05/19 05:29:14;;;;;;;3.05;1.90;;;;;;;25.46;45.30;101866.94;4983515;28;20096;-69
2022/05/19 05:31:40;;;;;;;3.22;2.10;;;;;;;25.58;45.63;101867.31;4987559;28;20041;-70
2022/05/19 05:34:06;;;;;;;3.17;2.08;;;;;;;25.15;46.33;101869.31;4990292;28;20394;-70
2022/05/19 05:36:31;;;;;;;4.95;2.20;;;;;;;25.93;44.84;101870.28;4989949;28;20062;-69
2022/05/19 05:38:57;;;;;;;4.30;1.90;;;;;;;26.08;44.50;101855.44;4987839;28;20517;-70
2022/05/19 05:41:24;;;;;;;4.72;1.75;;;;;;;25.61;45.62;101855.72;4991177;28;20045;-70
2022/05/19 05:43:52;;;;;;;2.60;1.80;;;;;;;26.20;44.33;101852.97;4991902;28;20113;-71
2022/05/19 05:46:18;;;;;;;2.88;2.25;;;;;;;25.79;45.46;101847.38;4991252;28;20125;-67
2022/05/19 05:48:45;;;;;;;4.78;2.42;;;;;;;26.35;43.77;101836.16;4990239;28;20121;-67
2022/05/19 05:51:12;;;;;;;6.15;2.20;;;;;;;26.84;43.17;101824.38;4989651;28;20046;-66
2022/05/19 05:53:39;;;;;;;3.10;2.00;;;;;;;26.24;44.37;101800.84;4990359;28;20092;-69
2022/05/19 05:56:08;;;;;;;3.63;1.90;;;;;;;26.30;44.72;101778.38;5000059;28;20469;-67
2022/05/19 05:58:34;;;;;;;5.60;2.00;;;;;;;26.50;44.41;101807.44;4990828;28;20033;-67
2022/05/19 06:01:02;;;;;;;3.67;2.05;;;;;;;26.86;43.01;101811.91;4979758;28;20154;-67
2022/05/19 06:03:27;;;;;;;3.92;1.48;;;;;;;27.31;41.92;101765.84;4978197;28;20082;-67
2022/05/19 06:05:53;;;;;;;3.75;1.63;;;;;;;27.06;42.63;101768.41;4981868;28;20465;-68
2022/05/19 06:08:18;;;;;;;7.05;1.85;;;;;;;27.63;41.39;101757.31;4989925;28;20490;-67
2022/05/19 06:10:45;;;;;;;3.95;1.65;;;;;;;27.87;41.31;101773.50;4984378;28;20022;-66
2022/05/19 06:13:10;;;;;;;1.85;1.48;;;;;;;28.11;40.75;101792.50;4990290;28;20122;-65
2022/05/19 06:15:36;;;;;;;2.47;1.52;;;;;;;28.32;40.57;101815.66;4990583;28;20183;-66
2022/05/19 06:18:01;;;;;;;1.55;1.15;;;;;;;27.82;41.04;101817.84;4989170;28;20042;-66
2022/05/19 06:20:27;;;;;;;1.27;0.93;;;;;;;28.02;40.48;101800.75;4979875;28;20415;-66
2022/05/19 06:22:52;;;;;;;2.58;1.50;;;;;;;27.86;41.08;101798.66;4982280;28;20313;-67
2022/05/19 06:25:21;;;;;;;1.60;1.05;;;;;;;28.45;39.92;101800.88;4994630;28;20413;-66
2022/05/19 06:27:49;;;;;;;2.20;1.33;;;;;;;28.32;39.61;101796.31;4993880;28;20039;-66
2022/05/19 06:30:15;;;;;;;1.80;1.35;;;;;;;28.29;39.86;101770.09;4992206;28;20022;-67
2022/05/19 06:32:41;;;;;;;2.00;1.20;;;;;;;28.19;40.28;101762.09;4993929;28;20421;-67
2022/05/19 06:35:08;;;;;;;1.55;1.15;;;;;;;27.96;40.84;101782.66;4994155;28;20053;-67
2022/05/19 06:37:34;;;;;;;1.80;1.20;;;;;;;27.41;42.20;101784.94;4994365;28;20056;-66
2022/05/19 06:40:00;;;;;;;2.55;1.20;;;;;;;27.73;41.81;101778.31;4993394;28;20498;-67
2022/05/19 06:42:26;;;;;;;2.08;1.23;;;;;;;27.77;42.80;101771.03;4984030;28;20104;-67
2022/05/19 06:44:51;;;;;;;2.67;1.80;;;;;;;27.78;43.21;101742.25;4990072;28;20069;-67
2022/05/19 06:47:17;;;;;;;2.03;1.40;;;;;;;27.65;44.16;101727.41;4993514;28;20034;-67
2022/05/19 06:49:48;;;;;;;1.88;1.13;;;;;;;27.05;46.35;101728.13;4993819;28;20042;-65
2022/05/19 06:52:20;;;;;;;2.33;1.40;;;;;;;27.09;46.38;101741.00;4990804;28;20035;-67
2022/05/19 06:54:47;;;;;;;2.53;1.30;;;;;;;26.56;46.83;101804.28;4974562;28;20097;-68
2022/05/19 06:57:13;;;;;;;2.08;1.10;;;;;;;26.27;47.90;101802.97;4974410;28;20419;-66
2022/05/19 06:59:38;;;;;;;1.83;1.02;;;;;;;26.50;47.40;101797.25;4974527;28;20204;-66
2022/05/19 07:02:05;;;;;;;2.75;1.17;;;;;;;26.88;46.52;101775.75;4990743;28;20088;-66
2022/05/19 07:04:32;;;;;;;3.53;1.42;;;;;;;27.11;45.54;101766.34;4994191;28;20058;-66
2022/05/19 07:06:58;;;;;;;2.30;1.45;;;;;;;26.87;46.30;101750.09;4993954;28;20058;-66
2022/05/19 07:09:23;;;;;;;2.25;1.30;;;;;;;26.71;47.05;101787.41;4993521;28;20588;-67
2022/05/19 07:11:48;;;;;;;2.97;1.63;;;;;;;26.95;46.65;101773.34;4993563;28;20464;-67
2022/05/19 07:14:15;;;;;;;4.47;1.40;;;;;;;27.03;46.95;101766.31;4992498;28;20101;-67
2022/05/19 07:16:43;;;;;;;2.90;1.50;;;;;;;25.92;50.75;101738.34;4993991;28;20398;-67
2022/05/19 07:21:54;;;;;;;4.38;1.75;;;;;;;24.26;57.07;101843.50;4993472;28;20456;-68
2022/05/19 07:24:21;;;;;;;2.58;1.48;;;;;;;25.37;54.61;101839.28;4993340;28;20125;-68
2022/05/19 07:26:50;;;;;;;3.00;1.60;;;;;;;25.33;54.21;101860.25;4993562;28;20030;-67
2022/05/19 07:29:16;;;;;;;4.30;1.98;;;;;;;25.21;53.62;101833.19;4993451;28;20041;-68
2022/05/19 07:31:42;;;;;;;5.18;1.83;;;;;;;25.63;52.46;101847.97;4993337;28;20041;-66
2022/05/19 07:34:10;;;;;;;4.72;2.15;;;;;;;25.25;53.75;101859.00;4993264;28;20035;-66
2022/05/19 07:36:36;;;;;;;2.78;2.30;;;;;;;25.36;53.79;101851.38;4993253;28;20496;-67
2022/05/19 07:39:01;;;;;;;3.60;2.20;;;;;;;25.94;52.03;101830.59;4993283;28;20084;-68
2022/05/19 07:41:28;;;;;;;4.20;2.42;;;;;;;26.61;52.12;101828.19;4992055;28;20042;-66
2022/05/19 07:43:54;;;;;;;5.88;2.53;;;;;;;27.05;50.10;101830.25;4992802;28;20379;-66
2022/05/19 07:46:19;;;;;;;3.15;2.20;;;;;;;27.27;50.95;101824.75;4992430;28;20097;-66
2022/05/19 07:48:45;;;;;;;3.20;2.80;;;;;;;27.32;50.59;101839.25;4992108;28;20062;-67
2022/05/19 07:51:10;;;;;;;4.15;1.92;;;;;;;27.52;49.37;101830.50;4992763;28;20034;-67
2022/05/19 07:53:36;;;;;;;4.43;2.70;;;;;;;27.01;49.80;101824.53;4992541;28;20038;-66
2022/05/19 07:56:02;;;;;;;4.15;2.33;;;;;;;27.30;48.39;101824.13;4997401;28;20398;-66
2022/05/19 07:58:29;;;;;;;2.88;2.20;;;;;;;27.34;49.59;101812.16;4999174;28;20047;-67
2022/05/19 08:00:56;;;;;;;2.95;2.10;;;;;;;27.72;49.02;101807.06;4996524;28;20023;-65
2022/05/19 08:03:23;;;;;;;5.65;2.25;;;;;;;27.85;49.09;101803.41;4992310;28;20065;-67
2022/05/19 08:05:50;;;;;;;3.78;2.30;;;;;;;28.01;48.54;101818.44;4992389;28;20027;-66
2022/05/19 08:08:15;;;;;;;5.53;2.70;;;;;;;28.04;47.99;101806.78;4989396;28;20034;-65
2022/05/19 08:10:40;;;;;;;2.83;2.40;;;;;;;28.36;48.14;101809.13;4992233;28;20375;-67
2022/05/19 08:15:50;;;;;;;4.47;1.90;;;;;;;28.70;46.92;101802.91;4992567;28;20084;-65
2022/05/19 08:18:18;;;;;;;4.18;2.55;;;;;;;28.87;46.76;101802.13;4992201;28;20514;-66
2022/05/19 08:20:47;;;;;;;3.22;1.70;;;;;;;28.67;44.72;101808.28;4992355;28;20521;-68
2022/05/19 08:23:22;;;;;;;4.35;2.03;;;;;;;28.31;46.33;101802.94;4992228;28;20039;-67
2022/05/19 08:25:48;;;;;;;2.80;1.90;;;;;;;28.43;46.46;101792.91;4992387;28;20109;-67
2022/05/19 08:28:16;;;;;;;5.75;2.30;;;;;;;28.65;47.70;101797.53;4991799;28;20031;-65
2022/05/19 08:30:47;;;;;;;3.15;1.45;;;;;;;28.91;45.37;101790.09;4978416;28;20031;-66
2022/05/19 08:33:14;;;;;;;2.90;1.95;;;;;;;28.99;45.76;101794.00;4979942;28;20061;-67
2022/05/19 08:35:40;;;;;;;3.08;1.80;;;;;;;28.85;46.95;101796.91;4992329;28;20114;-66
2022/05/19 08:38:05;;;;;;;5.38;1.92;;;;;;;29.04;46.21;101789.09;5006810;28;20521;-66
2022/05/19 08:40:44;;;;;;;2.60;2.30;;;;;;;29.15;44.02;101786.84;5007548;28;20072;-66
2022/05/19 08:43:12;;;;;;;2.95;1.70;;;;;;;28.89;44.65;101799.84;4991254;28;20039;-67
2022/05/19 08:45:41;;;;;;;3.63;1.85;;;;;;;29.31;44.99;101805.41;5001104;28;20092;-66
2022/05/19 08:48:12;;;;;;;2.95;1.95;;;;;;;29.72;44.35;101798.50;4992037;28;20117;-66
2022/05/19 08:50:53;;;;;;;4.40;2.40;;;;;;;29.20;45.79;101795.81;4992010;28;20450;-66
2022/05/19 08:53:19;;;;;;;4.15;2.30;;;;;;;29.57;45.60;101799.81;4992003;28;20046;-65
2022/05/19 08:55:48;;;;;;;6.07;2.58;;;;;;;29.72;44.28;101804.06;4992451;28;20034;-66
2022/05/19 08:58:45;;;;;;;3.03;2.70;;;;;;;30.08;43.87;101799.66;4991680;28;20043;-66
2022/05/19 09:02:08;;;;;;;4.10;2.90;;;;;;;30.13;42.71;101795.91;4991256;28;20457;-66
2022/05/19 09:05:12;;;;;;;5.03;3.28;;;;;;;30.18;42.86;101804.84;4948589;28;20476;-66
2022/05/19 09:07:57;;;;;;;5.75;3.10;;;;;;;29.96;42.74;101798.72;4892819;29;20497;-65
2022/05/19 09:10:50;;;;;;;4.80;3.33;;;;;;;29.81;43.88;101802.88;4893471;29;20127;-68
2022/05/19 09:13:40;;;;;;;4.18;2.28;;;;;;;30.35;42.53;101801.19;4893464;29;20048;-65
2022/05/19 09:16:14;;;;;;;7.18;2.20;;;;;;;30.36;42.27;101793.69;4892993;29;20218;-66
2022/05/19 09:18:45;;;;;;;5.38;2.13;;;;;;;30.37;41.38;101789.78;4892606;29;20049;-67
2022/05/19 09:21:10;;;;;;;3.20;2.42;;;;;;;30.04;42.04;101795.13;4893186;29;20461;-69
2022/05/19 09:23:39;;;;;;;4.65;2.70;;;;;;;30.18;41.50;101790.16;4892900;29;20043;-67
2022/05/19 09:26:34;;;;;;;5.25;2.42;;;;;;;30.46;38.33;101793.31;4893199;29;20039;-66
2022/05/19 09:29:07;;;;;;;3.85;1.73;;;;;;;30.85;39.14;101790.13;4855598;29;20426;-67
2022/05/19 09:32:12;;;;;;;4.43;2.28;;;;;;;30.90;40.41;101787.94;4856021;29;20041;-68
2022/05/19 09:34:40;;;;;;;2.85;1.90;;;;;;;30.91;40.25;101800.69;4851469;29;20080;-69
2022/05/19 09:37:18;;;;;;;3.22;2.20;;;;;;;31.19;38.68;101793.41;4855326;29;20129;-67
2022/05/19 09:39:52;;;;;;;2.58;2.00;;;;;;;31.46;38.42;101811.50;4855555;29;20121;-67
2022/05/19 09:42:23;;;;;;;2.65;1.75;;;;;;;31.64;36.58;101810.16;4844087;29;20163;-68
2022/05/19 09:44:56;;;;;;;2.47;1.95;;;;;;;31.62;38.12;101808.88;4885818;29;20129;-67
2022/05/19 09:47:31;;;;;;;2.25;1.90;;;;;;;31.64;37.75;101809.34;4892700;29;20041;-64
2022/05/19 09:50:10;;;;;;;3.55;2.55;;;;;;;31.47;37.11;101815.88;4892815;29;20076;-66
2022/05/19 09:52:40;;;;;;;5.53;2.77;;;;;;;31.27;37.19;101807.56;4893116;29;20149;-63
2022/05/19 09:55:09;;;;;;;2.95;2.47;;;;;;;31.68;36.54;101815.84;4896536;29;20033;-66
2022/05/19 09:57:39;;;;;;;3.08;2.05;;;;;;;30.77;37.45;101807.63;4896463;29;20041;-63
2022/05/19 10:00:17;;;;;;;3.80;2.20;;;;;;;31.45;37.21;101803.50;4896565;29;20039;-65
2022/05/19 10:02:46;;;;;;;4.88;2.70;;;;;;;31.06;38.15;101797.28;4896367;29;20040;-66
2022/05/19 10:05:31;;;;;;;3.25;2.70;;;;;;;31.54;37.37;101795.88;4907442;28;20043;-64
2022/05/19 10:08:05;;;;;;;4.97;2.75;;;;;;;31.76;37.01;101798.25;4953143;28;20047;-65
2022/05/19 10:10:33;;;;;;;6.57;2.70;;;;;;;31.27;38.20;101779.78;4968133;28;20042;-66
2022/05/19 10:13:07;;;;;;;6.18;3.13;;;;;;;30.94;36.62;101774.19;4994812;28;20125;-67
2022/05/19 10:15:55;;;;;;;5.28;2.38;;;;;;;31.30;36.95;101771.56;4995267;28;20038;-75
2022/05/19 10:18:51;;;;;;;8.38;3.10;;;;;;;31.76;37.17;101753.78;4994146;28;20042;-75
2022/05/19 10:21:33;;;;;;;5.68;2.85;;;;;;;31.83;36.95;101731.75;4988363;28;20638;-75
2022/05/19 10:24:12;;;;;;;4.40;2.47;;;;;;;32.27;36.75;101733.63;4994700;28;20134;-76
2022/05/19 10:31:02;;;;;;;4.20;2.47;;;;;;;32.35;35.62;101726.31;5009652;28;20450;-75
2022/05/19 10:32:58;;;;;;;4.65;2.58;;;;;;;32.25;35.93;101715.66;4995049;28;20080;-71
2022/05/19 10:35:45;;;;;;;3.83;3.08;;;;;;;32.00;36.14;101715.69;4975039;28;20031;-72
2022/05/19 10:38:37;;;;;;;3.03;2.70;;;;;;;31.93;36.62;101703.53;4983977;28;20086;-72
2022/05/19 10:41:03;;;;;;;5.22;2.83;;;;;;;32.98;35.40;101688.47;4995195;28;20133;-74
2022/05/19 10:43:47;;;;;;;4.75;2.78;;;;;;;32.38;35.37;101678.28;4995823;28;20086;-74
2022/05/19 10:46:15;;;;;;;5.15;3.05;;;;;;;32.86;34.93;101683.72;4995731;28;20050;-73
2022/05/19 10:49:02;;;;;;;4.88;2.78;;;;;;;32.69;33.98;101672.88;4994908;28;20038;-73
2022/05/19 10:51:36;;;;;;;5.00;2.80;;;;;;;33.26;33.50;101667.72;5009275;28;20534;-74
2022/05/19 10:54:24;;;;;;;3.72;2.72;;;;;;;33.65;32.73;101664.00;4992720;28;20073;-74
2022/05/19 10:57:06;;;;;;;3.28;2.03;;;;;;;33.62;30.60;101670.31;4992343;28;20038;-73
2022/05/19 10:59:49;;;;;;;2.97;1.92;;;;;;;33.65;29.29;101666.00;4993006;28;20066;-72
2022/05/19 11:02:37;;;;;;;2.97;1.77;;;;;;;33.81;31.04;101677.13;4992602;28;20129;-72
2022/05/19 11:05:34;;;;;;;2.97;2.00;;;;;;;33.83;30.23;101672.78;4988349;28;20041;-73
2022/05/19 11:08:32;;;;;;;2.72;1.85;;;;;;;33.80;29.87;101673.53;4992600;28;20360;-71
2022/05/19 11:11:14;;;;;;;5.10;2.10;;;;;;;33.85;30.09;101678.81;4993974;28;20035;-71
2022/05/19 11:13:50;;;;;;;4.55;2.60;;;;;;;33.41;29.37;101678.09;4986901;28;20073;-75
2022/05/19 11:16:52;;;;;;;2.55;1.70;;;;;;;33.83;28.73;101672.00;4993838;28;20050;-75
2022/05/19 11:19:23;;;;;;;4.55;1.73;;;;;;;34.10;28.02;101669.09;4991479;28;20050;-75
2022/05/19 11:21:56;;;;;;;6.47;2.17;;;;;;;34.71;28.53;101679.59;4993740;28;20038;-75
2022/05/19 11:24:34;;;;;;;3.65;2.40;;;;;;;34.96;28.13;101686.47;4993895;28;20043;-76
2022/05/19 11:27:09;;;;;;;3.88;2.28;;;;;;;35.28;27.75;101677.53;4992478;28;20038;-75
2022/05/19 11:29:47;;;;;;;3.42;2.45;;;;;;;35.02;28.54;101677.47;4985273;28;20470;-75
2022/05/19 11:32:19;;;;;;;4.43;2.33;;;;;;;34.60;28.83;101678.53;4999626;28;20050;-75
2022/05/19 11:35:09;;;;;;;4.47;2.35;;;;;;;34.62;28.07;101671.44;4991829;28;20092;-74
2022/05/19 11:38:04;;;;;;;2.75;2.50;;;;;;;34.08;29.46;101673.41;4993482;28;20093;-75
2022/05/19 11:40:33;;;;;;;3.22;2.25;;;;;;;34.09;29.76;101683.38;4992447;28;20030;-74
2022/05/19 11:43:21;;;;;;;3.22;2.30;;;;;;;34.03;29.18;101690.41;4991580;28;20422;-74
2022/05/19 11:45:58;;;;;;;3.22;2.33;;;;;;;33.69;29.16;101686.38;4991815;28;20038;-74